Time;durP1;ratioP1;P1;durP2;ratioP2;P2;SDS_P1;SDS_P2;PMS_P1;PMS_P2;Temp;Humidity;BMP_temperature;BMP_pressure;BME280_temperature;BME280_humidity;BME280_pressure;Samples;Min_cycle;Max_cycle;Signal;HPM_P1;HPM_P2
2023/12/17 00:00:20;;;;;;;2.83;2.38;;;14.30;70.90;15.90;103519.00;;;;5008444;28;20201;-74
2023/12/17 00:02:48;;;;;;;3.25;2.55;;;14.40;71.00;15.90;103523.00;;;;5008660;28;20224;-74
2023/12/17 00:05:16;;;;;;;4.32;2.58;;;14.40;71.00;16.00;103525.00;;;;5006480;28;20233;-74
2023/12/17 00:07:43;;;;;;;3.58;2.45;;;14.40;71.00;16.00;103512.00;;;;5008422;28;20224;-74
2023/12/17 00:10:10;;;;;;;3.92;2.63;;;14.40;71.00;16.00;103508.00;;;;4990855;28;20217;-74
2023/12/17 00:12:37;;;;;;;3.20;2.80;;;14.30;70.90;16.00;103503.00;;;;4987816;28;20190;-74
2023/12/17 00:15:05;;;;;;;3.65;2.88;;;14.30;70.90;15.90;103498.00;;;;5006914;28;20204;-74
2023/12/17 00:17:32;;;;;;;3.92;2.40;;;14.40;71.00;16.00;103493.00;;;;5008123;28;20199;-74
2023/12/17 00:20:00;;;;;;;2.83;2.15;;;14.30;70.90;15.90;103500.00;;;;5005269;28;20288;-74
2023/12/17 00:22:27;;;;;;;2.85;2.40;;;14.30;70.90;16.00;103506.00;;;;5008724;28;20574;-74
2023/12/17 00:24:54;;;;;;;3.53;2.30;;;14.30;70.90;16.00;103505.00;;;;5007255;28;20288;-74
2023/12/17 00:27:21;;;;;;;3.03;2.35;;;14.30;70.90;15.90;103495.00;;;;5005447;28;20228;-74
2023/12/17 00:29:48;;;;;;;3.42;2.40;;;14.30;70.90;15.90;103497.00;;;;5007673;28;20194;-74
2023/12/17 00:32:15;;;;;;;3.80;2.20;;;14.30;70.80;15.90;103500.00;;;;5007096;28;20260;-75
2023/12/17 00:34:42;;;;;;;4.00;2.47;;;14.30;70.90;15.90;103500.00;;;;4989279;28;20198;-74
2023/12/17 00:37:10;;;;;;;3.03;2.20;;;14.30;70.80;15.90;103514.00;;;;5021612;28;20247;-74
2023/12/17 00:39:37;;;;;;;3.38;2.83;;;14.30;70.80;15.90;103517.00;;;;5027907;28;20208;-74
2023/12/17 00:42:05;;;;;;;3.75;2.50;;;14.30;70.90;15.90;103518.00;;;;5025493;28;20196;-74
2023/12/17 00:44:32;;;;;;;4.32;2.72;;;14.30;70.90;15.90;103512.00;;;;5007270;28;20583;-74
2023/12/17 00:46:59;;;;;;;4.70;2.63;;;14.30;70.90;15.90;103512.00;;;;5007003;28;20204;-74
2023/12/17 00:49:26;;;;;;;3.58;2.60;;;14.30;70.80;15.90;103501.00;;;;5008007;28;20201;-74
2023/12/17 00:51:53;;;;;;;3.00;2.13;;;14.30;70.70;15.90;103505.00;;;;5008012;28;20197;-74
2023/12/17 00:54:22;;;;;;;5.00;2.47;;;14.30;70.70;15.90;103504.00;;;;5006682;28;20209;-74
2023/12/17 00:56:49;;;;;;;3.50;2.30;;;14.30;70.80;15.90;103498.00;;;;5019743;28;20252;-75
2023/12/17 00:59:16;;;;;;;3.08;2.15;;;14.30;70.70;16.00;103494.00;;;;5022647;28;20201;-74
2023/12/17 01:01:43;;;;;;;4.38;2.67;;;14.40;70.80;16.00;103497.00;;;;4999652;28;20204;-75
2023/12/17 01:04:09;;;;;;;2.70;2.10;;;14.40;70.70;16.00;103496.00;;;;4973829;28;1047568;-74
2023/12/17 01:06:37;;;;;;;5.20;2.40;;;14.40;70.70;15.90;103498.00;;;;5008054;28;20205;-74
2023/12/17 01:09:04;;;;;;;5.57;2.60;;;14.30;70.60;16.00;103502.00;;;;5008242;28;20224;-74
2023/12/17 01:11:33;;;;;;;5.13;2.70;;;14.30;70.60;15.90;103496.00;;;;5019682;28;20197;-74
2023/12/17 01:14:00;;;;;;;6.75;2.80;;;14.40;70.70;16.00;103488.00;;;;5032235;28;20211;-74
2023/12/17 01:16:27;;;;;;;4.35;2.75;;;14.30;70.60;16.00;103483.00;;;;5025959;28;20225;-74
2023/12/17 01:18:54;;;;;;;4.05;2.88;;;14.40;70.60;16.00;103481.00;;;;5010711;28;20694;-74
2023/12/17 01:21:20;;;;;;;2.80;2.22;;;14.40;70.60;16.00;103476.00;;;;5010288;28;20220;-74
2023/12/17 01:23:48;;;;;;;3.63;2.42;;;14.30;71.30;16.00;103465.00;;;;5010844;28;20193;-74
2023/12/17 01:26:20;;;;;;;3.20;2.25;;;14.40;70.70;16.00;103465.00;;;;5010306;28;20197;-74
2023/12/17 01:28:49;;;;;;;5.35;2.28;;;14.40;70.60;16.00;103458.00;;;;5006631;28;20279;-74
2023/12/17 01:31:16;;;;;;;5.63;2.53;;;14.40;70.50;16.00;103472.00;;;;5010415;28;20270;-74
2023/12/17 01:33:43;;;;;;;3.83;2.20;;;14.30;70.50;16.00;103463.00;;;;5008117;28;20200;-74
2023/12/17 01:36:10;;;;;;;3.58;2.17;;;14.40;70.50;16.00;103463.00;;;;5008257;28;20731;-74
2023/12/17 01:38:37;;;;;;;6.68;2.92;;;14.40;70.50;16.00;103455.00;;;;5009190;28;20621;-74
2023/12/17 01:41:06;;;;;;;3.42;2.20;;;14.40;70.50;15.90;103452.00;;;;5010284;28;20209;-74
2023/12/17 01:43:33;;;;;;;3.67;2.38;;;14.40;70.40;15.90;103458.00;;;;5011822;28;20693;-74
2023/12/17 01:46:02;;;;;;;3.40;2.35;;;14.40;70.40;15.90;103458.00;;;;5011832;28;20209;-74
2023/12/17 01:48:30;;;;;;;3.45;2.20;;;14.30;70.30;15.90;103474.00;;;;5013411;28;20228;-74
2023/12/17 01:50:58;;;;;;;8.27;2.42;;;14.30;70.40;15.90;103479.00;;;;5009308;28;20205;-75
2023/12/17 01:53:25;;;;;;;2.60;2.28;;;14.30;70.40;15.90;103492.00;;;;5010417;28;20205;-74
2023/12/17 01:55:53;;;;;;;7.35;2.30;;;14.30;70.40;15.90;103497.00;;;;5012350;28;20205;-74
2023/12/17 01:58:22;;;;;;;4.43;2.30;;;14.30;70.40;15.90;103505.00;;;;5009615;28;20217;-74
2023/12/17 02:00:49;;;;;;;3.42;2.22;;;14.30;70.40;15.90;103502.00;;;;5009951;28;20208;-74
2023/12/17 02:03:18;;;;;;;2.60;2.03;;;14.30;70.40;15.90;103493.00;;;;5014522;28;20208;-74
2023/12/17 02:05:46;;;;;;;2.97;2.13;;;14.30;70.40;16.00;103488.00;;;;5009783;28;20232;-74
2023/12/17 02:08:13;;;;;;;3.35;1.75;;;14.30;70.40;16.00;103490.00;;;;5004456;28;20228;-74
2023/12/17 02:10:41;;;;;;;2.92;1.73;;;14.40;70.40;16.00;103492.00;;;;5015261;28;20650;-74
2023/12/17 02:13:09;;;;;;;5.22;2.10;;;14.40;70.40;16.00;103497.00;;;;5010970;28;20197;-74
2023/12/17 02:15:37;;;;;;;2.47;1.90;;;14.40;70.40;16.00;103501.00;;;;5008986;28;20209;-74
2023/12/17 02:18:04;;;;;;;4.70;2.08;;;14.40;70.30;16.00;103499.00;;;;5003092;28;20248;-74
2023/12/17 02:20:34;;;;;;;2.58;1.70;;;14.40;70.30;16.00;103491.00;;;;5010216;28;20930;-74
2023/12/17 02:23:04;;;;;;;2.60;2.00;;;14.40;70.30;15.90;103499.00;;;;5013517;28;20228;-74
2023/12/17 02:25:32;;;;;;;2.10;1.90;;;14.30;70.20;16.00;103496.00;;;;5004403;28;20251;-74
2023/12/17 02:28:00;;;;;;;5.32;2.00;;;14.40;70.20;16.00;103497.00;;;;5008450;28;20659;-74
2023/12/17 02:30:27;;;;;;;3.88;1.83;;;14.40;70.20;15.90;103490.00;;;;5009096;28;20197;-74
2023/12/17 02:32:54;;;;;;;4.45;1.88;;;14.40;70.20;15.90;103499.00;;;;5010632;28;20189;-74
2023/12/17 02:35:22;;;;;;;2.03;1.83;;;14.30;70.10;15.90;103493.00;;;;5003540;28;20207;-74
2023/12/17 02:37:49;;;;;;;3.95;2.00;;;14.30;70.10;15.90;103496.00;;;;5013417;28;20239;-75
2023/12/17 02:40:18;;;;;;;3.40;1.75;;;14.30;70.10;15.90;103497.00;;;;5002356;28;20556;-74
2023/12/17 02:42:45;;;;;;;4.47;1.98;;;14.30;70.10;15.90;103498.00;;;;5004849;28;20193;-74
2023/12/17 02:45:13;;;;;;;6.32;2.35;;;14.40;70.10;16.00;103496.00;;;;5008565;28;20212;-74
2023/12/17 02:47:40;;;;;;;4.00;1.80;;;14.40;70.10;16.00;103497.00;;;;5010145;28;20197;-74
2023/12/17 02:50:08;;;;;;;3.67;1.83;;;14.40;70.10;16.00;103497.00;;;;5004363;28;20209;-74
2023/12/17 02:52:35;;;;;;;5.13;2.72;;;14.30;70.10;16.00;103491.00;;;;5010968;28;20193;-74
2023/12/17 02:55:02;;;;;;;5.03;1.98;;;14.30;70.00;16.00;103492.00;;;;5011886;28;20201;-74
2023/12/17 02:57:30;;;;;;;8.02;2.58;;;14.40;70.00;15.90;103485.00;;;;5010286;28;20217;-74
2023/12/17 02:59:56;;;;;;;4.88;2.28;;;14.40;70.00;16.00;103480.00;;;;5006151;28;20236;-74
2023/12/17 03:02:24;;;;;;;3.88;1.98;;;14.30;70.00;16.00;103473.00;;;;5009712;28;20556;-74
2023/12/17 03:04:51;;;;;;;5.50;2.10;;;14.40;70.10;16.00;103480.00;;;;5009573;28;20717;-74
2023/12/17 03:07:18;;;;;;;3.30;2.35;;;14.40;70.10;16.00;103478.00;;;;5010513;28;20197;-74
2023/12/17 03:09:45;;;;;;;4.80;2.30;;;14.40;70.00;16.00;103482.00;;;;5009748;28;20785;-74
2023/12/17 03:12:12;;;;;;;4.60;2.30;;;14.40;70.00;16.00;103476.00;;;;5014755;28;20577;-74
2023/12/17 03:14:41;;;;;;;2.67;2.13;;;14.40;70.00;15.90;103484.00;;;;5009268;28;20196;-75
2023/12/17 03:17:08;;;;;;;5.45;2.05;;;14.40;70.00;16.00;103472.00;;;;5006374;28;20736;-74
2023/12/17 03:19:35;;;;;;;3.38;2.47;;;14.40;70.10;16.00;103473.00;;;;5012969;28;20284;-74
2023/12/17 03:22:02;;;;;;;4.78;2.38;;;14.40;70.10;16.00;103480.00;;;;5009072;28;20679;-74
2023/12/17 03:24:29;;;;;;;4.00;2.13;;;14.40;70.10;15.90;103480.00;;;;5010179;28;20200;-74
2023/12/17 03:26:56;;;;;;;5.63;2.50;;;14.40;70.10;16.00;103476.00;;;;5007577;28;20201;-74
2023/12/17 03:29:23;;;;;;;6.00;2.28;;;14.40;70.10;16.00;103473.00;;;;5009142;28;20228;-74
2023/12/17 03:31:51;;;;;;;3.90;2.25;;;14.30;70.00;16.00;103478.00;;;;5021734;28;20204;-74
2023/12/17 03:34:18;;;;;;;4.95;2.03;;;14.40;70.10;15.90;103466.00;;;;5007091;28;20275;-74
2023/12/17 03:36:45;;;;;;;7.25;2.55;;;14.40;70.10;15.90;103456.00;;;;5007069;28;20200;-74
2023/12/17 03:39:13;;;;;;;4.82;2.92;;;14.40;70.10;15.90;103458.00;;;;5007347;28;20212;-74
2023/12/17 03:41:40;;;;;;;5.30;3.00;;;14.40;70.10;15.90;103453.00;;;;5010290;28;20211;-74
2023/12/17 03:44:07;;;;;;;7.07;2.90;;;14.30;70.00;15.90;103447.00;;;;5009294;28;20395;-74
2023/12/17 03:46:34;;;;;;;7.50;3.35;;;14.30;70.00;15.90;103453.00;;;;5007478;28;20209;-74
2023/12/17 03:49:02;;;;;;;7.95;3.08;;;14.30;70.00;15.90;103441.00;;;;5007842;28;20302;-74
2023/12/17 03:51:29;;;;;;;5.65;3.08;;;14.30;70.10;15.90;103435.00;;;;5008075;28;20216;-74
2023/12/17 03:53:56;;;;;;;5.78;2.88;;;14.30;70.00;15.90;103436.00;;;;5002872;28;20193;-74
2023/12/17 03:56:24;;;;;;;8.77;3.13;;;14.30;70.00;15.90;103439.00;;;;5009066;28;20197;-75
2023/12/17 03:58:51;;;;;;;3.75;2.33;;;14.30;70.00;15.90;103439.00;;;;5007991;28;20220;-74
2023/12/17 04:01:18;;;;;;;3.95;2.45;;;14.30;70.10;15.90;103436.00;;;;5008538;28;20216;-74
2023/12/17 04:03:44;;;;;;;5.93;2.85;;;14.30;70.00;15.80;103433.00;;;;5009151;28;20201;-74
2023/12/17 04:06:13;;;;;;;6.53;3.08;;;14.30;70.00;15.80;103432.00;;;;5008155;28;20228;-74
2023/12/17 04:08:40;;;;;;;4.95;2.70;;;14.30;70.00;15.80;103429.00;;;;5006189;28;20232;-75
2023/12/17 04:11:07;;;;;;;4.07;2.58;;;14.30;70.00;15.80;103430.00;;;;5008073;28;20208;-74
2023/12/17 04:13:34;;;;;;;7.63;2.60;;;14.30;70.10;15.80;103435.00;;;;5008930;28;20201;-74
2023/12/17 04:16:01;;;;;;;5.13;2.30;;;14.20;70.00;15.80;103429.00;;;;5007624;28;20215;-74
2023/12/17 04:18:28;;;;;;;4.35;2.30;;;14.20;70.00;15.80;103434.00;;;;5012878;28;20879;-74
2023/12/17 04:20:55;;;;;;;6.20;2.40;;;14.20;70.00;15.80;103429.00;;;;5008238;28;20681;-74
2023/12/17 04:23:23;;;;;;;2.78;1.80;;;14.20;70.00;15.80;103425.00;;;;5005076;28;21011;-75
2023/12/17 04:25:50;;;;;;;4.07;2.15;;;14.20;70.00;15.80;103420.00;;;;5005183;28;20216;-74
2023/12/17 04:28:17;;;;;;;4.80;2.67;;;14.20;70.00;15.70;103419.00;;;;5006653;28;20710;-74
2023/12/17 04:30:44;;;;;;;4.15;2.15;;;14.20;70.00;15.70;103421.00;;;;5009114;28;20209;-74
2023/12/17 04:33:11;;;;;;;4.55;1.98;;;14.20;70.00;15.70;103423.00;;;;5010477;28;20678;-74
2023/12/17 04:35:38;;;;;;;4.80;2.10;;;14.20;70.10;15.70;103422.00;;;;5008475;28;20197;-74
2023/12/17 04:38:05;;;;;;;2.45;1.65;;;14.20;70.10;15.70;103419.00;;;;5008522;28;20196;-74
2023/12/17 04:40:33;;;;;;;2.85;1.80;;;14.20;70.20;15.70;103418.00;;;;5003715;28;21073;-74
2023/12/17 04:43:00;;;;;;;3.58;1.80;;;14.10;70.10;15.70;103424.00;;;;5008110;28;20207;-74
2023/12/17 04:45:27;;;;;;;3.03;2.05;;;14.20;70.20;15.70;103433.00;;;;5007647;28;20667;-74
2023/12/17 04:47:55;;;;;;;5.07;1.80;;;14.20;70.10;15.70;103431.00;;;;5007339;28;20212;-74
2023/12/17 04:50:22;;;;;;;3.88;2.53;;;14.10;70.10;15.70;103437.00;;;;5006590;28;20235;-74
2023/12/17 04:52:49;;;;;;;5.78;2.35;;;14.10;70.10;15.70;103423.00;;;;5008024;28;20220;-74
2023/12/17 04:55:16;;;;;;;5.03;2.20;;;14.10;70.10;15.70;103424.00;;;;5005406;28;20222;-74
2023/12/17 04:57:44;;;;;;;4.20;2.05;;;14.10;70.10;15.70;103421.00;;;;5001300;28;20220;-74
2023/12/17 05:00:13;;;;;;;4.22;1.98;;;14.10;70.10;15.70;103423.00;;;;5009267;28;20206;-74
2023/12/17 05:02:40;;;;;;;3.97;2.55;;;14.10;70.10;15.70;103420.00;;;;5007389;28;20223;-74
2023/12/17 05:05:08;;;;;;;6.45;2.92;;;14.10;70.10;15.60;103421.00;;;;5009402;28;20244;-74
2023/12/17 05:07:35;;;;;;;3.55;2.38;;;14.10;70.10;15.60;103418.00;;;;5013394;28;20204;-74
2023/12/17 05:10:02;;;;;;;2.83;2.00;;;14.10;70.20;15.60;103404.00;;;;5006291;28;20228;-74
2023/12/17 05:12:28;;;;;;;6.53;2.20;;;14.10;70.20;15.60;103411.00;;;;5011632;28;20197;-74
2023/12/17 05:14:57;;;;;;;3.72;1.90;;;14.10;70.20;15.60;103409.00;;;;5006351;28;20567;-74
2023/12/17 05:17:24;;;;;;;5.90;2.65;;;14.10;70.20;15.60;103412.00;;;;5006249;28;20211;-74
2023/12/17 05:19:52;;;;;;;4.75;2.45;;;14.00;70.10;15.60;103410.00;;;;5006967;28;20212;-74
2023/12/17 05:22:19;;;;;;;3.10;2.05;;;14.00;70.80;15.60;103401.00;;;;5012858;28;20201;-74
2023/12/17 05:24:48;;;;;;;3.67;2.60;;;14.00;70.20;15.60;103416.00;;;;5007292;28;20201;-74
2023/12/17 05:27:15;;;;;;;6.25;3.28;;;14.00;70.20;15.60;103414.00;;;;5007537;28;20194;-74
2023/12/17 05:29:42;;;;;;;5.43;2.78;;;14.00;70.20;15.60;103417.00;;;;5011793;28;20224;-74
2023/12/17 05:32:11;;;;;;;5.47;2.78;;;14.00;70.30;15.50;103413.00;;;;5005042;28;20204;-74
2023/12/17 05:34:38;;;;;;;4.07;2.90;;;14.00;70.30;15.50;103417.00;;;;5006900;28;20220;-74
2023/12/17 05:37:05;;;;;;;7.45;3.08;;;14.00;70.20;15.50;103423.00;;;;5005357;28;20694;-74
2023/12/17 05:39:32;;;;;;;6.53;4.05;;;14.00;70.30;15.60;103401.00;;;;5006700;28;20209;-74
2023/12/17 05:41:58;;;;;;;7.40;3.72;;;14.00;70.30;15.50;103417.00;;;;5010673;28;20201;-74
2023/12/17 05:44:25;;;;;;;6.95;4.43;;;14.00;70.30;15.60;103417.00;;;;5009813;28;20197;-74
2023/12/17 05:46:52;;;;;;;6.88;4.72;;;14.00;70.30;15.60;103413.00;;;;5010143;28;20241;-74
2023/12/17 05:49:21;;;;;;;10.02;5.20;;;13.90;70.20;15.50;103413.00;;;;5007716;28;20225;-74
2023/12/17 05:51:49;;;;;;;7.68;4.75;;;14.00;70.20;15.50;103397.00;;;;5017253;28;20201;-74
2023/12/17 05:54:16;;;;;;;6.35;5.38;;;13.90;70.20;15.50;103401.00;;;;5009666;28;20193;-74
2023/12/17 05:56:43;;;;;;;11.45;5.78;;;14.00;70.20;15.50;103395.00;;;;5010943;28;20272;-74
2023/12/17 05:59:11;;;;;;;9.77;6.38;;;13.90;70.20;15.50;103391.00;;;;5010580;28;20659;-74
2023/12/17 06:01:38;;;;;;;11.30;7.07;;;14.00;70.90;15.50;103399.00;;;;5009162;28;20219;-74
2023/12/17 06:04:05;;;;;;;10.55;7.10;;;13.90;70.20;15.50;103396.00;;;;5005798;28;20308;-74
2023/12/17 06:06:33;;;;;;;10.35;7.15;;;13.90;70.20;15.50;103395.00;;;;5006880;28;20200;-75
2023/12/17 06:09:00;;;;;;;9.95;7.13;;;13.90;70.20;15.50;103400.00;;;;5010392;28;20225;-74
2023/12/17 06:11:27;;;;;;;13.13;7.72;;;13.90;70.20;15.50;103404.00;;;;5005862;28;20735;-75
2023/12/17 06:13:54;;;;;;;11.60;8.07;;;13.90;70.20;15.50;103404.00;;;;5009977;28;20219;-74
2023/12/17 06:16:21;;;;;;;13.13;7.50;;;13.90;70.20;15.50;103400.00;;;;5008990;28;20837;-74
2023/12/17 06:18:50;;;;;;;12.15;8.32;;;13.90;70.20;15.40;103422.00;;;;5010446;28;20213;-74
2023/12/17 06:21:28;;;;;;;11.68;8.35;;;13.90;70.20;15.40;103423.00;;;;5008016;28;20578;-74
2023/12/17 06:23:57;;;;;;;14.82;8.95;;;13.90;70.30;15.50;103420.00;;;;5004364;28;20659;-74
2023/12/17 06:26:24;;;;;;;13.45;8.77;;;13.90;70.30;15.50;103421.00;;;;5008468;28;20224;-74
2023/12/17 06:28:51;;;;;;;13.43;8.98;;;13.90;70.30;15.50;103417.00;;;;5010493;28;20506;-74
2023/12/17 06:31:18;;;;;;;15.95;10.13;;;13.90;70.30;15.50;103427.00;;;;5010029;28;20212;-74
2023/12/17 06:33:46;;;;;;;13.45;9.00;;;13.90;70.30;15.50;103425.00;;;;5009427;28;20212;-74
2023/12/17 06:36:13;;;;;;;13.02;9.02;;;13.90;70.40;15.50;103430.00;;;;5006929;28;20197;-74
2023/12/17 06:38:40;;;;;;;16.05;9.07;;;13.90;70.40;15.50;103434.00;;;;5010528;28;20197;-74
2023/12/17 06:41:10;;;;;;;14.23;9.38;;;13.90;70.40;15.40;103421.00;;;;5007707;28;20209;-74
2023/12/17 06:43:37;;;;;;;17.27;11.75;;;13.90;70.30;15.40;103430.00;;;;5009543;28;20197;-74
2023/12/17 06:46:06;;;;;;;17.73;10.95;;;13.90;70.30;15.40;103422.00;;;;5009783;28;20209;-74
2023/12/17 06:48:34;;;;;;;14.68;10.05;;;13.90;70.30;15.40;103432.00;;;;5007157;28;20597;-74
2023/12/17 06:51:01;;;;;;;14.23;10.02;;;13.90;70.30;15.40;103432.00;;;;5005378;28;20609;-74
2023/12/17 06:53:29;;;;;;;13.23;9.65;;;13.90;70.30;15.40;103426.00;;;;5008583;28;20212;-74
2023/12/17 06:55:56;;;;;;;16.45;10.48;;;13.90;70.30;15.40;103421.00;;;;5004875;28;20203;-74
2023/12/17 06:58:25;;;;;;;13.07;8.93;;;13.90;70.30;15.40;103425.00;;;;5007727;28;20217;-73
2023/12/17 07:00:53;;;;;;;13.77;9.30;;;13.90;70.30;15.40;103434.00;;;;5008651;28;20200;-73
2023/12/17 07:03:20;;;;;;;14.93;9.85;;;13.90;70.30;15.40;103430.00;;;;5007786;28;20201;-74
2023/12/17 07:05:47;;;;;;;14.40;9.65;;;13.80;70.20;15.40;103430.00;;;;5004201;28;20228;-74
2023/12/17 07:08:14;;;;;;;12.18;9.15;;;13.80;70.20;15.40;103429.00;;;;5008285;28;20205;-74
2023/12/17 07:10:41;;;;;;;11.23;8.38;;;13.80;70.20;15.40;103426.00;;;;5006218;28;20216;-74
2023/12/17 07:13:08;;;;;;;12.93;8.25;;;13.80;70.10;15.40;103426.00;;;;5008982;28;20194;-74
2023/12/17 07:15:36;;;;;;;11.02;8.25;;;13.80;70.10;15.30;103424.00;;;;5009618;28;20208;-74
2023/12/17 07:18:04;;;;;;;12.05;8.82;;;13.80;70.10;15.40;103418.00;;;;5006761;28;20216;-74
2023/12/17 07:20:31;;;;;;;12.15;7.30;;;13.80;70.10;15.40;103423.00;;;;5009610;28;20201;-74
2023/12/17 07:22:58;;;;;;;9.82;7.57;;;13.80;70.10;15.40;103429.00;;;;5008870;28;20196;-74
2023/12/17 07:25:26;;;;;;;10.98;6.70;;;13.80;70.10;15.40;103422.00;;;;5009363;28;20255;-74
2023/12/17 07:27:54;;;;;;;8.25;6.05;;;13.80;70.10;15.40;103422.00;;;;5006990;28;20201;-74
2023/12/17 07:30:21;;;;;;;8.52;6.97;;;13.80;70.10;15.40;103423.00;;;;5005327;28;20217;-75
2023/12/17 07:32:50;;;;;;;8.13;6.28;;;13.70;70.00;15.40;103423.00;;;;5009079;28;20220;-75
2023/12/17 07:35:17;;;;;;;9.40;5.68;;;13.80;70.00;15.40;103427.00;;;;5014120;28;20204;-73
2023/12/17 07:37:43;;;;;;;7.75;5.93;;;13.80;70.00;15.30;103420.00;;;;5004662;28;20197;-74
2023/12/17 07:40:11;;;;;;;7.63;5.05;;;13.80;70.00;15.30;103423.00;;;;5006594;28;20193;-74
2023/12/17 07:42:38;;;;;;;7.10;5.85;;;13.80;69.90;15.30;103424.00;;;;5011089;28;20211;-73
2023/12/17 07:45:08;;;;;;;7.78;5.65;;;13.80;70.00;15.30;103423.00;;;;5014098;28;20213;-73
2023/12/17 07:47:35;;;;;;;7.28;5.43;;;13.80;69.90;15.30;103429.00;;;;5005279;28;20202;-73
2023/12/17 07:50:04;;;;;;;7.13;5.43;;;13.70;69.90;15.30;103429.00;;;;5016057;28;20568;-73
2023/12/17 07:52:30;;;;;;;6.65;4.97;;;13.70;69.90;15.30;103425.00;;;;5006410;28;20201;-73
2023/12/17 07:54:58;;;;;;;8.13;5.88;;;13.70;69.90;15.30;103432.00;;;;5006857;28;20652;-73
2023/12/17 07:57:25;;;;;;;7.95;5.45;;;13.80;70.00;15.30;103427.00;;;;5004562;28;20212;-73
2023/12/17 07:59:52;;;;;;;10.02;5.95;;;13.70;69.90;15.30;103438.00;;;;5004571;28;20228;-73
2023/12/17 08:02:19;;;;;;;9.43;6.20;;;13.70;69.80;15.30;103439.00;;;;5005127;28;20197;-73
2023/12/17 08:04:48;;;;;;;7.68;6.32;;;13.70;69.80;15.30;103436.00;;;;4999795;28;20224;-73
2023/12/17 08:07:16;;;;;;;9.13;6.13;;;13.70;69.70;15.30;103444.00;;;;5007870;28;20255;-73
2023/12/17 08:09:43;;;;;;;10.73;6.53;;;13.70;69.70;15.30;103438.00;;;;5006850;28;20221;-73
2023/12/17 08:12:10;;;;;;;8.63;5.97;;;13.70;69.80;15.30;103445.00;;;;5007490;28;20213;-73
2023/12/17 08:14:37;;;;;;;9.43;7.05;;;13.70;69.70;15.30;103443.00;;;;5006719;28;20255;-73
2023/12/17 08:17:04;;;;;;;10.70;6.95;;;13.70;69.70;15.20;103439.00;;;;5008884;28;20205;-73
2023/12/17 08:19:32;;;;;;;10.13;7.65;;;13.70;69.60;15.20;103442.00;;;;5008114;28;20192;-73
2023/12/17 08:21:58;;;;;;;13.93;8.38;;;13.70;69.60;15.20;103437.00;;;;5007714;28;20205;-73
2023/12/17 08:24:27;;;;;;;10.48;7.20;;;13.60;69.50;15.20;103430.00;;;;5002761;28;20193;-73
2023/12/17 08:26:57;;;;;;;11.95;8.02;;;13.60;69.50;15.20;103420.00;;;;5005289;28;20197;-73
2023/12/17 08:29:24;;;;;;;19.83;9.43;;;13.60;69.50;15.20;103431.00;;;;5010008;28;20197;-73
2023/12/17 08:31:51;;;;;;;14.20;8.65;;;13.60;69.50;15.10;103426.00;;;;5004923;28;20201;-74
2023/12/17 08:34:18;;;;;;;14.30;8.35;;;13.60;69.50;15.20;103427.00;;;;5003957;28;20657;-73
2023/12/17 08:36:47;;;;;;;14.23;8.75;;;13.60;69.60;15.20;103431.00;;;;5002413;28;20189;-73
2023/12/17 08:39:14;;;;;;;13.88;8.98;;;13.60;69.60;15.20;103431.00;;;;4997307;28;20690;-74
2023/12/17 08:41:42;;;;;;;13.57;9.15;;;13.60;69.60;15.20;103429.00;;;;5005797;28;20199;-74
2023/12/17 08:44:09;;;;;;;16.75;10.43;;;13.60;69.60;15.20;103427.00;;;;5008778;28;20201;-74
2023/12/17 08:46:36;;;;;;;14.85;9.65;;;13.60;69.60;15.20;103423.00;;;;5011760;28;20200;-74
2023/12/17 08:49:04;;;;;;;14.23;9.45;;;13.60;69.60;15.20;103423.00;;;;5001056;28;20209;-74
2023/12/17 08:51:31;;;;;;;13.60;8.75;;;13.60;69.60;15.20;103424.00;;;;5007507;28;20225;-74
2023/12/17 08:53:58;;;;;;;13.60;9.02;;;13.60;69.70;15.20;103422.00;;;;5005727;28;20390;-74
2023/12/17 08:56:25;;;;;;;15.15;9.18;;;13.60;69.60;15.20;103422.00;;;;5003285;28;20552;-74
2023/12/17 08:58:54;;;;;;;15.05;9.90;;;13.60;69.70;15.20;103422.00;;;;5007074;28;20205;-74
2023/12/17 09:01:21;;;;;;;17.95;9.80;;;13.60;69.80;15.30;103427.00;;;;5005761;28;20196;-74
2023/12/17 09:03:48;;;;;;;14.77;9.13;;;13.60;69.80;15.30;103429.00;;;;5011245;28;20197;-74
2023/12/17 09:06:15;;;;;;;15.38;10.45;;;13.60;69.80;15.30;103432.00;;;;5007151;28;20232;-74
2023/12/17 09:08:41;;;;;;;18.30;11.80;;;13.60;69.70;15.30;103424.00;;;;5006417;28;20193;-74
2023/12/17 09:11:11;;;;;;;19.65;10.98;;;13.60;69.60;15.30;103422.00;;;;5007138;28;20686;-74
2023/12/17 09:13:38;;;;;;;18.52;11.57;;;13.60;69.70;15.30;103422.00;;;;5000546;28;20209;-73
2023/12/17 09:16:07;;;;;;;15.32;10.60;;;13.70;69.70;15.30;103421.00;;;;5008760;28;20202;-74
2023/12/17 09:18:34;;;;;;;17.63;11.40;;;13.70;69.60;15.30;103422.00;;;;5012540;28;20197;-74
2023/12/17 09:21:01;;;;;;;13.32;9.43;;;13.70;69.60;15.30;103425.00;;;;5010851;28;20205;-74
2023/12/17 09:23:28;;;;;;;17.20;9.75;;;13.70;69.50;15.30;103423.00;;;;5010027;28;20565;-73
2023/12/17 09:25:57;;;;;;;15.35;9.48;;;13.60;69.30;15.20;103430.00;;;;5009937;28;20660;-74
2023/12/17 09:28:24;;;;;;;12.88;9.07;;;13.60;69.20;15.20;103435.00;;;;5009976;28;20315;-74
2023/12/17 09:30:50;;;;;;;15.30;8.30;;;13.60;69.20;15.20;103435.00;;;;5005040;28;20826;-74
2023/12/17 09:33:21;;;;;;;11.15;8.25;;;13.60;69.20;15.20;103443.00;;;;5010414;28;20212;-74
2023/12/17 09:35:48;;;;;;;13.70;9.32;;;13.60;69.20;15.20;103443.00;;;;5012274;28;20201;-74
2023/12/17 09:38:16;;;;;;;13.20;8.18;;;13.60;69.20;15.20;103441.00;;;;5012692;28;20681;-74
2023/12/17 09:40:43;;;;;;;12.70;8.48;;;13.60;69.20;15.10;103450.00;;;;5007157;28;20614;-74
2023/12/17 09:43:10;;;;;;;12.02;7.90;;;13.60;69.20;15.10;103447.00;;;;5010591;28;20765;-74
2023/12/17 09:45:38;;;;;;;12.45;8.82;;;13.50;69.10;15.10;103449.00;;;;5011355;28;20193;-73
2023/12/17 09:48:06;;;;;;;12.30;8.63;;;13.50;69.00;15.10;103447.00;;;;5009959;28;20220;-74
2023/12/17 09:50:34;;;;;;;12.45;8.30;;;13.50;69.10;15.10;103444.00;;;;5011030;28;20227;-74
2023/12/17 09:53:01;;;;;;;12.05;7.60;;;13.50;69.10;15.10;103452.00;;;;5011026;28;20755;-74
2023/12/17 09:55:28;;;;;;;12.27;8.57;;;13.50;69.20;15.10;103451.00;;;;5010101;28;20216;-74
2023/12/17 09:57:55;;;;;;;10.90;8.02;;;13.50;69.20;15.10;103455.00;;;;5010673;28;20223;-73
2023/12/17 10:00:22;;;;;;;15.65;9.10;;;13.50;69.20;15.10;103451.00;;;;5009983;28;20685;-73
2023/12/17 10:02:49;;;;;;;13.73;9.32;;;13.50;69.30;15.10;103454.00;;;;5009634;28;20581;-75
2023/12/17 10:05:16;;;;;;;15.43;8.90;;;13.40;69.30;15.10;103460.00;;;;5006552;28;20220;-74
2023/12/17 10:07:44;;;;;;;13.65;9.35;;;13.50;69.40;15.10;103457.00;;;;5010061;28;20197;-75
2023/12/17 10:10:11;;;;;;;16.75;11.00;;;13.50;69.40;15.10;103452.00;;;;5011683;28;20236;-75
2023/12/17 10:12:39;;;;;;;13.70;8.90;;;13.50;69.40;15.10;103456.00;;;;5010234;28;20205;-75
2023/12/17 10:15:10;;;;;;;13.27;9.05;;;13.50;69.30;15.10;103458.00;;;;5010312;28;20193;-75
2023/12/17 10:17:38;;;;;;;13.20;9.13;;;13.50;69.20;15.10;103450.00;;;;5008474;28;20200;-74
2023/12/17 10:20:07;;;;;;;14.82;9.30;;;13.50;69.10;15.10;103453.00;;;;5008456;28;20197;-77
2023/12/17 10:22:34;;;;;;;15.88;9.68;;;13.50;69.10;15.10;103448.00;;;;5011061;28;20209;-74
2023/12/17 10:25:02;;;;;;;15.20;10.05;;;13.50;69.10;15.00;103449.00;;;;5004408;28;20212;-74
2023/12/17 10:27:30;;;;;;;14.90;9.68;;;13.50;69.10;15.00;103440.00;;;;5010728;28;20208;-74
2023/12/17 10:30:00;;;;;;;15.40;10.35;;;13.40;69.10;15.00;103432.00;;;;5010148;28;20284;-74
2023/12/17 10:32:27;;;;;;;15.40;10.35;;;13.40;69.20;15.00;103431.00;;;;5009201;28;20277;-74
2023/12/17 10:34:55;;;;;;;20.85;12.05;;;13.40;69.10;15.00;103431.00;;;;5010097;28;20197;-74
2023/12/17 10:37:24;;;;;;;18.75;11.77;;;13.40;69.10;15.00;103422.00;;;;5007672;28;20213;-74
2023/12/17 10:39:54;;;;;;;17.80;11.40;;;13.40;69.10;15.00;103417.00;;;;5004591;28;20302;-75
2023/12/17 10:42:26;;;;;;;19.35;12.65;;;13.40;69.20;15.00;103421.00;;;;5009647;28;20413;-75